Ardmore, SD

2:02 AM MDT on August 28, 2014 (GMT -0600)
Pine Ridge | Change Station
CLOSE
Current Station
Airport
Location: Pine Ridge,
Elevation: 3330 ft
Nearby Weather Stations

Elev 3330 ft 43.02 °N, 102.52 °W | Updated 10 minutes ago

Overcast
Overcast
63 °F
Feels Like 63 °F
N
0
Wind Variable Wind from North

Today
High -- | Low -- °F
--% Chance of Precip.
Yesterday
High -- | Low -- °F
Precip. -- in
6:14 AM 7:36 PM
Waxing Crescent, 7% visible
Pressure 29.93 in
Visibility 1.2 miles
Clouds Overcast 300 ft
Dew Point 63 °F
Humidity 100%
Rainfall 0.00 in
Snow Depth Not available.
UV 0 out of 12
Pollen 8.40 out of 12
Air Quality Not available.
Flu Activity Not available.
METAR KIEN 280752Z AUTO 00000KT 1 1/4SM BR OVC003 17/17 A3000 RMK AO2 SLP134 T01720172 $

More Conditions Fewer Conditions

Pressure 29.93 in
Visibility 1.2 miles
Clouds Overcast 300 ft
Dew Point 63 °F
Humidity 100%
Rainfall 0.00 in
Snow Depth Not available.
UV 0 out of 12
Pollen 8.40 out of 12
Air Quality Not available.
Flu Activity Not available.
METAR KIEN 280752Z AUTO 00000KT 1 1/4SM BR OVC003 17/17 A3000 RMK AO2 SLP134 T01720172 $

More Conditions Fewer Conditions

10-Day Weather Forecast

Almanac

Astronomy

Aug. 28, 2014 Rise Set
Actual Time 6:14 AM MDT 7:36 PM MDT
Civil Twilight 5:45 AM MDT 8:05 PM MDT
Nautical Twilight 5:09 AM MDT 8:40 PM MDT
Astronomical Twilight 4:31 AM MDT 9:18 PM MDT
Moon 9:14 AM MDT 8:55 PM MDT
Length of Visible Light 14h 20m
Length of Day
13h 21m
Tomorrow will be 2m 48s shorter.
Waxing Crescent, 7% of the Moon is Illuminated
Today
Waxing Crescent
Sep 2
First Quarter
Sep 8
Full
Sep 15
Last Quarter
Sep 24
New

Today's Extremes

State Highs State Lows

Community

WunderPhotos

Upload Photos

1,747,916 photos uploaded!

Nearby

Snow Depth

Station Depth Elevation
Blind Park 0 in 6890 ft

Earthquake Activity

City Distance Mag. Time & Date
No recent earthquake activity has been reported nearby.
Minimum magnitude displayed is 2.5.

Coastal Water Temperatures

Place Temperature
No Stations Reporting

Nearby Weather Stations